Terminal Aerodrome Forecast
Issued by NWS Cleveland, OH

Home | Current Version | Previous Version | Graphics & Text | Print | Product List | Glossary On
Versions: 1 2 3 4 5 6 7 8 9 10 11 12 13 14 15 16 17 18 19 20 21 22 23 24 25 26 27 28 29 30 31
000
FTUS41 KCLE 180800 AAB
TAFCLE
TAF AMD
KCLE 180845Z 1809/1912 30012G20KT 6SM -RA SCT008 OVC015
      TEMPO 1809/1813 3SM RA BR OVC008
     FM181500 30015G25KT P6SM VCSH OVC025
     FM190000 31012G18KT P6SM BKN025 OVC050
      TEMPO 1902/1906 SCT025 OVC050
     FM190600 31011KT P6SM SCT050 BKN100
     FM190900 31008KT P6SM SCT100=

USA.gov is the U.S. government's official web portal to all federal, state and local government web resources and services.